sensor_id;sensor_type;location;lat;lon;timestamp;temperature;humidity
53045;DHT22;38930;52.766;6.884;2023-04-02T00:00:15;5.10;99.90
53045;DHT22;38930;52.766;6.884;2023-04-02T00:03:02;5.10;99.90
53045;DHT22;38930;52.766;6.884;2023-04-02T00:05:37;5.10;99.90
53045;DHT22;38930;52.766;6.884;2023-04-02T00:08:35;5.40;99.90
53045;DHT22;38930;52.766;6.884;2023-04-02T00:11:06;5.00;99.90
53045;DHT22;38930;52.766;6.884;2023-04-02T00:13:44;5.00;99.90
53045;DHT22;38930;52.766;6.884;2023-04-02T00:16:18;5.10;99.90
53045;DHT22;38930;52.766;6.884;2023-04-02T00:18:50;5.00;99.90
53045;DHT22;38930;52.766;6.884;2023-04-02T00:23:47;4.90;99.90
53045;DHT22;38930;52.766;6.884;2023-04-02T00:26:38;5.30;99.90
53045;DHT22;38930;52.766;6.884;2023-04-02T00:29:10;4.80;99.90
53045;DHT22;38930;52.766;6.884;2023-04-02T00:31:40;4.80;99.90
53045;DHT22;38930;52.766;6.884;2023-04-02T00:34:11;4.80;99.90
53045;DHT22;38930;52.766;6.884;2023-04-02T00:36:38;4.90;99.90
53045;DHT22;38930;52.766;6.884;2023-04-02T00:39:13;5.00;99.90
53045;DHT22;38930;52.766;6.884;2023-04-02T00:41:41;4.70;99.90
53045;DHT22;38930;52.766;6.884;2023-04-02T00:44:15;4.60;99.90
53045;DHT22;38930;52.766;6.884;2023-04-02T00:46:47;4.90;99.90
53045;DHT22;38930;52.766;6.884;2023-04-02T00:49:30;4.60;99.90
53045;DHT22;38930;52.766;6.884;2023-04-02T00:52:00;4.60;99.90
53045;DHT22;38930;52.766;6.884;2023-04-02T00:54:30;4.60;99.90
53045;DHT22;38930;52.766;6.884;2023-04-02T00:56:57;4.50;99.90
53045;DHT22;38930;52.766;6.884;2023-04-02T00:59:34;4.50;99.90
53045;DHT22;38930;52.766;6.884;2023-04-02T01:04:43;4.40;99.90
53045;DHT22;38930;52.766;6.884;2023-04-02T01:07:16;4.40;99.90
53045;DHT22;38930;52.766;6.884;2023-04-02T01:15:34;4.30;99.90
53045;DHT22;38930;52.766;6.884;2023-04-02T01:23:42;4.10;99.90
53045;DHT22;38930;52.766;6.884;2023-04-02T01:26:29;4.00;99.90
53045;DHT22;38930;52.766;6.884;2023-04-02T01:29:09;4.00;99.90
53045;DHT22;38930;52.766;6.884;2023-04-02T01:31:37;4.00;99.90
53045;DHT22;38930;52.766;6.884;2023-04-02T01:34:06;4.00;99.90
53045;DHT22;38930;52.766;6.884;2023-04-02T01:39:41;3.90;99.90
53045;DHT22;38930;52.766;6.884;2023-04-02T01:45:20;3.80;99.90
53045;DHT22;38930;52.766;6.884;2023-04-02T01:47:46;3.80;99.90
53045;DHT22;38930;52.766;6.884;2023-04-02T01:52:47;3.60;99.90
53045;DHT22;38930;52.766;6.884;2023-04-02T01:55:17;3.60;99.90
53045;DHT22;38930;52.766;6.884;2023-04-02T01:57:48;3.50;99.90
53045;DHT22;38930;52.766;6.884;2023-04-02T02:00:15;3.50;99.90
53045;DHT22;38930;52.766;6.884;2023-04-02T02:02:42;3.40;99.90
53045;DHT22;38930;52.766;6.884;2023-04-02T02:05:15;3.30;99.90
53045;DHT22;38930;52.766;6.884;2023-04-02T02:07:42;3.30;99.90
53045;DHT22;38930;52.766;6.884;2023-04-02T02:10:16;3.20;99.90
53045;DHT22;38930;52.766;6.884;2023-04-02T02:12:43;3.20;99.90
53045;DHT22;38930;52.766;6.884;2023-04-02T02:15:19;3.10;99.90
53045;DHT22;38930;52.766;6.884;2023-04-02T02:17:45;3.10;99.90
53045;DHT22;38930;52.766;6.884;2023-04-02T02:20:11;3.00;99.90
53045;DHT22;38930;52.766;6.884;2023-04-02T02:22:48;3.00;99.90
53045;DHT22;38930;52.766;6.884;2023-04-02T02:25:20;2.90;99.90
53045;DHT22;38930;52.766;6.884;2023-04-02T02:28:26;2.80;99.90
53045;DHT22;38930;52.766;6.884;2023-04-02T02:31:00;2.70;99.90
53045;DHT22;38930;52.766;6.884;2023-04-02T02:33:36;2.60;99.90
53045;DHT22;38930;52.766;6.884;2023-04-02T02:36:07;2.60;99.90
53045;DHT22;38930;52.766;6.884;2023-04-02T02:38:57;2.40;99.90
53045;DHT22;38930;52.766;6.884;2023-04-02T02:41:45;2.40;99.90
53045;DHT22;38930;52.766;6.884;2023-04-02T02:44:22;2.40;99.90
53045;DHT22;38930;52.766;6.884;2023-04-02T02:46:55;2.30;99.90
53045;DHT22;38930;52.766;6.884;2023-04-02T02:49:36;2.30;99.90
53045;DHT22;38930;52.766;6.884;2023-04-02T02:52:29;2.20;99.90
53045;DHT22;38930;52.766;6.884;2023-04-02T02:57:28;2.20;99.90
53045;DHT22;38930;52.766;6.884;2023-04-02T02:59:56;2.10;99.90
53045;DHT22;38930;52.766;6.884;2023-04-02T03:02:23;2.10;99.90
53045;DHT22;38930;52.766;6.884;2023-04-02T03:04:50;2.00;99.90
53045;DHT22;38930;52.766;6.884;2023-04-02T03:07:18;2.00;99.90
53045;DHT22;38930;52.766;6.884;2023-04-02T03:15:37;1.90;99.90
53045;DHT22;38930;52.766;6.884;2023-04-02T03:18:26;1.90;99.90
53045;DHT22;38930;52.766;6.884;2023-04-02T03:21:43;1.90;99.90
53045;DHT22;38930;52.766;6.884;2023-04-02T03:23:48;1.90;99.90
53045;DHT22;38930;52.766;6.884;2023-04-02T03:26:38;1.80;99.90
53045;DHT22;38930;52.766;6.884;2023-04-02T03:29:24;1.80;99.90
53045;DHT22;38930;52.766;6.884;2023-04-02T03:32:04;1.80;99.90
53045;DHT22;38930;52.766;6.884;2023-04-02T03:34:42;1.80;99.90
53045;DHT22;38930;52.766;6.884;2023-04-02T03:43:14;1.80;99.90
53045;DHT22;38930;52.766;6.884;2023-04-02T03:45:46;1.80;99.90
53045;DHT22;38930;52.766;6.884;2023-04-02T03:48:26;2.10;99.90
53045;DHT22;38930;52.766;6.884;2023-04-02T03:50:57;1.90;99.90
53045;DHT22;38930;52.766;6.884;2023-04-02T03:53:25;1.90;99.90
53045;DHT22;38930;52.766;6.884;2023-04-02T03:55:52;1.90;99.90
53045;DHT22;38930;52.766;6.884;2023-04-02T03:58:24;1.80;99.90
53045;DHT22;38930;52.766;6.884;2023-04-02T04:03:39;1.90;99.90
53045;DHT22;38930;52.766;6.884;2023-04-02T04:06:13;2.70;99.90
53045;DHT22;38930;52.766;6.884;2023-04-02T04:09:17;1.80;99.90
53045;DHT22;38930;52.766;6.884;2023-04-02T04:11:38;1.80;99.90
53045;DHT22;38930;52.766;6.884;2023-04-02T04:14:15;1.80;99.90
53045;DHT22;38930;52.766;6.884;2023-04-02T04:16:48;1.80;99.90
53045;DHT22;38930;52.766;6.884;2023-04-02T04:19:29;1.80;99.90
53045;DHT22;38930;52.766;6.884;2023-04-02T04:22:21;1.80;99.90
53045;DHT22;38930;52.766;6.884;2023-04-02T04:24:58;1.80;99.90
53045;DHT22;38930;52.766;6.884;2023-04-02T04:27:32;1.80;99.90
53045;DHT22;38930;52.766;6.884;2023-04-02T04:30:24;1.90;99.90
53045;DHT22;38930;52.766;6.884;2023-04-02T04:33:16;1.90;99.90
53045;DHT22;38930;52.766;6.884;2023-04-02T04:36:01;1.80;99.90
53045;DHT22;38930;52.766;6.884;2023-04-02T04:38:31;1.80;99.90
53045;DHT22;38930;52.766;6.884;2023-04-02T04:41:04;1.80;99.90
53045;DHT22;38930;52.766;6.884;2023-04-02T04:46:11;1.80;99.90
53045;DHT22;38930;52.766;6.884;2023-04-02T04:51:28;1.80;99.90
53045;DHT22;38930;52.766;6.884;2023-04-02T04:53:59;1.80;99.90
53045;DHT22;38930;52.766;6.884;2023-04-02T04:56:27;1.80;99.90
53045;DHT22;38930;52.766;6.884;2023-04-02T04:59:04;1.80;99.90
53045;DHT22;38930;52.766;6.884;2023-04-02T05:04:18;1.80;99.90
53045;DHT22;38930;52.766;6.884;2023-04-02T05:09:43;1.70;99.90
53045;DHT22;38930;52.766;6.884;2023-04-02T05:15:32;1.60;99.90
53045;DHT22;38930;52.766;6.884;2023-04-02T05:26:28;1.70;99.90
53045;DHT22;38930;52.766;6.884;2023-04-02T05:31:57;1.70;99.90
53045;DHT22;38930;52.766;6.884;2023-04-02T05:34:30;1.70;99.90
53045;DHT22;38930;52.766;6.884;2023-04-02T05:36:58;1.80;99.90
53045;DHT22;38930;52.766;6.884;2023-04-02T05:39:24;1.70;99.90
53045;DHT22;38930;52.766;6.884;2023-04-02T05:42:03;1.80;99.90
53045;DHT22;38930;52.766;6.884;2023-04-02T05:44:34;2.50;99.90
53045;DHT22;38930;52.766;6.884;2023-04-02T05:47:02;1.80;99.90
53045;DHT22;38930;52.766;6.884;2023-04-02T05:49:32;1.90;99.90
53045;DHT22;38930;52.766;6.884;2023-04-02T05:52:01;1.90;99.90
53045;DHT22;38930;52.766;6.884;2023-04-02T05:54:37;1.90;99.90
53045;DHT22;38930;52.766;6.884;2023-04-02T05:57:08;1.90;99.90
53045;DHT22;38930;52.766;6.884;2023-04-02T05:59:42;2.00;99.90
53045;DHT22;38930;52.766;6.884;2023-04-02T06:04:54;2.00;99.90
53045;DHT22;38930;52.766;6.884;2023-04-02T06:07:21;2.00;99.90
53045;DHT22;38930;52.766;6.884;2023-04-02T06:10:04;2.10;99.90
53045;DHT22;38930;52.766;6.884;2023-04-02T06:12:52;2.10;99.90
53045;DHT22;38930;52.766;6.884;2023-04-02T06:15:21;2.10;99.90
53045;DHT22;38930;52.766;6.884;2023-04-02T06:18:04;2.10;99.90
53045;DHT22;38930;52.766;6.884;2023-04-02T06:20:31;2.20;99.90
53045;DHT22;38930;52.766;6.884;2023-04-02T06:25:35;2.20;99.90
53045;DHT22;38930;52.766;6.884;2023-04-02T06:28:05;2.20;99.90
53045;DHT22;38930;52.766;6.884;2023-04-02T06:30:34;2.20;99.90
53045;DHT22;38930;52.766;6.884;2023-04-02T06:33:02;2.30;99.90
53045;DHT22;38930;52.766;6.884;2023-04-02T06:35:27;2.20;99.90
53045;DHT22;38930;52.766;6.884;2023-04-02T06:37:55;2.30;99.90
53045;DHT22;38930;52.766;6.884;2023-04-02T06:43:07;2.40;99.90
53045;DHT22;38930;52.766;6.884;2023-04-02T06:45:37;2.50;99.90
53045;DHT22;38930;52.766;6.884;2023-04-02T06:48:16;2.50;99.90
53045;DHT22;38930;52.766;6.884;2023-04-02T06:50:50;2.50;99.90
53045;DHT22;38930;52.766;6.884;2023-04-02T06:53:48;2.50;99.90
53045;DHT22;38930;52.766;6.884;2023-04-02T06:56:39;2.60;99.90
53045;DHT22;38930;52.766;6.884;2023-04-02T06:59:07;2.70;99.90
53045;DHT22;38930;52.766;6.884;2023-04-02T07:01:37;2.80;99.90
53045;DHT22;38930;52.766;6.884;2023-04-02T07:04:05;2.90;99.90
53045;DHT22;38930;52.766;6.884;2023-04-02T07:06:30;3.70;99.90
53045;DHT22;38930;52.766;6.884;2023-04-02T07:08:56;3.00;99.90
53045;DHT22;38930;52.766;6.884;2023-04-02T07:11:22;3.20;99.90
53045;DHT22;38930;52.766;6.884;2023-04-02T07:13:48;3.90;99.90
53045;DHT22;38930;52.766;6.884;2023-04-02T07:16:26;3.40;99.90
53045;DHT22;38930;52.766;6.884;2023-04-02T07:18:53;3.60;99.90
53045;DHT22;38930;52.766;6.884;2023-04-02T07:21:20;3.70;99.90
53045;DHT22;38930;52.766;6.884;2023-04-02T07:23:45;3.90;99.90
53045;DHT22;38930;52.766;6.884;2023-04-02T07:26:19;3.90;99.90
53045;DHT22;38930;52.766;6.884;2023-04-02T07:28:46;4.10;99.90
53045;DHT22;38930;52.766;6.884;2023-04-02T07:31:25;4.20;99.90
53045;DHT22;38930;52.766;6.884;2023-04-02T07:33:56;4.30;99.90
53045;DHT22;38930;52.766;6.884;2023-04-02T07:36:24;4.20;99.90
53045;DHT22;38930;52.766;6.884;2023-04-02T07:38:50;4.00;99.90
53045;DHT22;38930;52.766;6.884;2023-04-02T07:41:18;3.80;99.90
53045;DHT22;38930;52.766;6.884;2023-04-02T07:43:44;3.80;99.90
53045;DHT22;38930;52.766;6.884;2023-04-02T07:46:11;3.90;99.90
53045;DHT22;38930;52.766;6.884;2023-04-02T07:48:39;3.80;99.90
53045;DHT22;38930;52.766;6.884;2023-04-02T07:51:23;3.70;99.90
53045;DHT22;38930;52.766;6.884;2023-04-02T07:53:50;3.60;99.90
53045;DHT22;38930;52.766;6.884;2023-04-02T07:56:21;3.60;99.90
53045;DHT22;38930;52.766;6.884;2023-04-02T07:58:47;3.70;99.90
53045;DHT22;38930;52.766;6.884;2023-04-02T08:01:22;3.70;99.90
53045;DHT22;38930;52.766;6.884;2023-04-02T08:03:52;3.70;99.90
53045;DHT22;38930;52.766;6.884;2023-04-02T08:06:18;3.80;99.90
53045;DHT22;38930;52.766;6.884;2023-04-02T08:08:44;3.70;99.90
53045;DHT22;38930;52.766;6.884;2023-04-02T08:11:10;3.90;99.90
53045;DHT22;38930;52.766;6.884;2023-04-02T08:13:36;4.00;99.90
53045;DHT22;38930;52.766;6.884;2023-04-02T08:16:03;4.10;99.90
53045;DHT22;38930;52.766;6.884;2023-04-02T08:18:29;4.20;99.90
53045;DHT22;38930;52.766;6.884;2023-04-02T08:20:55;5.30;99.90
53045;DHT22;38930;52.766;6.884;2023-04-02T08:23:22;4.50;99.90
53045;DHT22;38930;52.766;6.884;2023-04-02T08:25:48;4.70;99.90
53045;DHT22;38930;52.766;6.884;2023-04-02T08:28:13;5.00;99.90
53045;DHT22;38930;52.766;6.884;2023-04-02T08:30:39;5.60;99.90
53045;DHT22;38930;52.766;6.884;2023-04-02T08:33:06;5.10;99.90
53045;DHT22;38930;52.766;6.884;2023-04-02T08:35:32;5.10;99.90
53045;DHT22;38930;52.766;6.884;2023-04-02T08:37:59;5.10;99.90
53045;DHT22;38930;52.766;6.884;2023-04-02T08:40:26;6.00;99.90
53045;DHT22;38930;52.766;6.884;2023-04-02T08:48:21;5.20;99.90
53045;DHT22;38930;52.766;6.884;2023-04-02T08:50:48;5.20;99.90
53045;DHT22;38930;52.766;6.884;2023-04-02T08:53:24;5.10;99.90
53045;DHT22;38930;52.766;6.884;2023-04-02T08:56:17;5.10;99.90
53045;DHT22;38930;52.766;6.884;2023-04-02T08:58:48;5.20;99.90
53045;DHT22;38930;52.766;6.884;2023-04-02T09:03:48;5.40;99.90
53045;DHT22;38930;52.766;6.884;2023-04-02T09:06:17;5.40;99.90
53045;DHT22;38930;52.766;6.884;2023-04-02T09:08:46;6.10;99.90
53045;DHT22;38930;52.766;6.884;2023-04-02T09:11:33;5.80;99.90
53045;DHT22;38930;52.766;6.884;2023-04-02T09:14:03;6.00;99.90
53045;DHT22;38930;52.766;6.884;2023-04-02T09:22:20;6.00;99.90
53045;DHT22;38930;52.766;6.884;2023-04-02T09:24:59;6.20;99.90
53045;DHT22;38930;52.766;6.884;2023-04-02T09:27:28;6.30;99.90
53045;DHT22;38930;52.766;6.884;2023-04-02T09:29:58;6.40;99.90
53045;DHT22;38930;52.766;6.884;2023-04-02T09:32:53;6.30;99.90
53045;DHT22;38930;52.766;6.884;2023-04-02T09:35:29;6.50;99.90
53045;DHT22;38930;52.766;6.884;2023-04-02T09:41:00;6.70;99.90
53045;DHT22;38930;52.766;6.884;2023-04-02T09:43:31;6.60;99.90
53045;DHT22;38930;52.766;6.884;2023-04-02T09:46:39;7.10;99.90
53045;DHT22;38930;52.766;6.884;2023-04-02T09:48:51;6.70;99.90
53045;DHT22;38930;52.766;6.884;2023-04-02T09:51:23;6.90;99.90
53045;DHT22;38930;52.766;6.884;2023-04-02T09:56:38;6.90;99.90
53045;DHT22;38930;52.766;6.884;2023-04-02T09:59:16;7.00;99.90
53045;DHT22;38930;52.766;6.884;2023-04-02T10:01:55;7.20;99.90
53045;DHT22;38930;52.766;6.884;2023-04-02T10:04:42;7.40;99.90
53045;DHT22;38930;52.766;6.884;2023-04-02T10:09:59;7.70;99.90
53045;DHT22;38930;52.766;6.884;2023-04-02T10:12:28;7.80;99.90
53045;DHT22;38930;52.766;6.884;2023-04-02T10:14:55;8.00;99.90
53045;DHT22;38930;52.766;6.884;2023-04-02T10:17:23;7.80;99.90
53045;DHT22;38930;52.766;6.884;2023-04-02T10:20:06;7.90;99.90
53045;DHT22;38930;52.766;6.884;2023-04-02T10:22:36;7.90;99.90
53045;DHT22;38930;52.766;6.884;2023-04-02T10:25:04;8.00;99.90
53045;DHT22;38930;52.766;6.884;2023-04-02T10:27:40;8.00;99.90
53045;DHT22;38930;52.766;6.884;2023-04-02T10:33:28;8.00;99.90
53045;DHT22;38930;52.766;6.884;2023-04-02T10:36:06;8.10;99.90
53045;DHT22;38930;52.766;6.884;2023-04-02T10:38:48;8.10;99.90
53045;DHT22;38930;52.766;6.884;2023-04-02T10:41:36;8.00;99.90
53045;DHT22;38930;52.766;6.884;2023-04-02T10:51:58;8.30;99.90
53045;DHT22;38930;52.766;6.884;2023-04-02T10:54:42;8.40;99.90
53045;DHT22;38930;52.766;6.884;2023-04-02T10:59:50;8.80;99.90
53045;DHT22;38930;52.766;6.884;2023-04-02T11:02:58;8.90;99.90
53045;DHT22;38930;52.766;6.884;2023-04-02T11:05:51;8.80;99.90
53045;DHT22;38930;52.766;6.884;2023-04-02T11:11:22;8.50;99.90
53045;DHT22;38930;52.766;6.884;2023-04-02T11:16:28;8.90;99.90
53045;DHT22;38930;52.766;6.884;2023-04-02T11:24:01;8.90;99.90
53045;DHT22;38930;52.766;6.884;2023-04-02T11:29:13;8.50;99.90
53045;DHT22;38930;52.766;6.884;2023-04-02T11:31:39;8.50;99.90
53045;DHT22;38930;52.766;6.884;2023-04-02T11:34:08;9.30;99.90
53045;DHT22;38930;52.766;6.884;2023-04-02T11:44:43;9.40;99.90
53045;DHT22;38930;52.766;6.884;2023-04-02T11:47:15;9.00;99.90
53045;DHT22;38930;52.766;6.884;2023-04-02T11:50:01;9.00;99.90
53045;DHT22;38930;52.766;6.884;2023-04-02T11:52:34;9.30;99.90
53045;DHT22;38930;52.766;6.884;2023-04-02T11:55:22;9.30;99.90
53045;DHT22;38930;52.766;6.884;2023-04-02T12:00:22;9.30;99.90
53045;DHT22;38930;52.766;6.884;2023-04-02T12:11:32;9.30;99.90
53045;DHT22;38930;52.766;6.884;2023-04-02T12:14:00;9.50;99.90
53045;DHT22;38930;52.766;6.884;2023-04-02T12:16:26;9.60;99.90
53045;DHT22;38930;52.766;6.884;2023-04-02T12:18:57;9.60;99.90
53045;DHT22;38930;52.766;6.884;2023-04-02T12:21:26;9.60;99.90
53045;DHT22;38930;52.766;6.884;2023-04-02T12:23:57;10.30;99.90
53045;DHT22;38930;52.766;6.884;2023-04-02T12:29:25;9.90;99.90
53045;DHT22;38930;52.766;6.884;2023-04-02T12:31:56;10.00;99.90
53045;DHT22;38930;52.766;6.884;2023-04-02T12:34:24;10.00;99.90
53045;DHT22;38930;52.766;6.884;2023-04-02T12:37:04;10.20;99.90
53045;DHT22;38930;52.766;6.884;2023-04-02T12:39:33;10.10;99.90
53045;DHT22;38930;52.766;6.884;2023-04-02T12:41:59;10.40;99.90
53045;DHT22;38930;52.766;6.884;2023-04-02T12:44:28;10.10;99.90
53045;DHT22;38930;52.766;6.884;2023-04-02T12:46:54;10.10;99.90
53045;DHT22;38930;52.766;6.884;2023-04-02T12:49:36;10.00;99.90
53045;DHT22;38930;52.766;6.884;2023-04-02T12:52:09;10.00;99.90
53045;DHT22;38930;52.766;6.884;2023-04-02T12:54:50;10.00;99.90
53045;DHT22;38930;52.766;6.884;2023-04-02T12:57:32;10.20;99.90
53045;DHT22;38930;52.766;6.884;2023-04-02T13:02:43;10.30;99.90
53045;DHT22;38930;52.766;6.884;2023-04-02T13:05:09;10.40;99.90
53045;DHT22;38930;52.766;6.884;2023-04-02T13:07:36;10.50;99.90
53045;DHT22;38930;52.766;6.884;2023-04-02T13:10:22;10.50;99.90
53045;DHT22;38930;52.766;6.884;2023-04-02T13:12:55;10.70;99.90
53045;DHT22;38930;52.766;6.884;2023-04-02T13:15:32;10.70;99.90
53045;DHT22;38930;52.766;6.884;2023-04-02T13:18:12;10.70;99.90
53045;DHT22;38930;52.766;6.884;2023-04-02T13:20:42;10.70;99.90
53045;DHT22;38930;52.766;6.884;2023-04-02T13:23:32;10.70;99.90
53045;DHT22;38930;52.766;6.884;2023-04-02T13:26:01;10.80;99.90
53045;DHT22;38930;52.766;6.884;2023-04-02T13:28:27;10.70;99.90
53045;DHT22;38930;52.766;6.884;2023-04-02T13:30:53;10.60;99.90
53045;DHT22;38930;52.766;6.884;2023-04-02T13:33:19;10.50;99.90
53045;DHT22;38930;52.766;6.884;2023-04-02T13:35:45;10.50;99.90
53045;DHT22;38930;52.766;6.884;2023-04-02T13:38:11;10.60;99.90
53045;DHT22;38930;52.766;6.884;2023-04-02T13:40:37;10.50;99.90
53045;DHT22;38930;52.766;6.884;2023-04-02T13:43:04;10.50;99.90
53045;DHT22;38930;52.766;6.884;2023-04-02T13:45:32;10.60;99.90
53045;DHT22;38930;52.766;6.884;2023-04-02T13:47:59;10.80;99.90
53045;DHT22;38930;52.766;6.884;2023-04-02T13:50:32;10.80;99.90
53045;DHT22;38930;52.766;6.884;2023-04-02T13:53:00;10.80;99.90
53045;DHT22;38930;52.766;6.884;2023-04-02T13:55:31;10.80;99.90
53045;DHT22;38930;52.766;6.884;2023-04-02T13:57:59;10.80;99.90
53045;DHT22;38930;52.766;6.884;2023-04-02T14:00:25;10.90;99.90
53045;DHT22;38930;52.766;6.884;2023-04-02T14:03:03;11.00;99.90
53045;DHT22;38930;52.766;6.884;2023-04-02T14:08:37;11.30;99.90
53045;DHT22;38930;52.766;6.884;2023-04-02T14:27:40;11.00;99.90
53045;DHT22;38930;52.766;6.884;2023-04-02T14:33:34;11.00;99.90
53045;DHT22;38930;52.766;6.884;2023-04-02T14:38:49;11.00;99.90
53045;DHT22;38930;52.766;6.884;2023-04-02T14:44:10;10.70;99.90
53045;DHT22;38930;52.766;6.884;2023-04-02T14:46:37;10.70;99.90
53045;DHT22;38930;52.766;6.884;2023-04-02T14:49:25;10.80;99.90
53045;DHT22;38930;52.766;6.884;2023-04-02T14:54:33;11.00;99.90
53045;DHT22;38930;52.766;6.884;2023-04-02T14:59:46;10.90;99.90
53045;DHT22;38930;52.766;6.884;2023-04-02T15:02:44;10.50;99.90
53045;DHT22;38930;52.766;6.884;2023-04-02T15:07:47;10.60;99.90
53045;DHT22;38930;52.766;6.884;2023-04-02T15:10:43;10.70;99.90
53045;DHT22;38930;52.766;6.884;2023-04-02T15:13:18;10.80;99.90
53045;DHT22;38930;52.766;6.884;2023-04-02T15:15:57;10.90;99.90
53045;DHT22;38930;52.766;6.884;2023-04-02T15:18:28;11.10;99.90
53045;DHT22;38930;52.766;6.884;2023-04-02T15:23:58;11.00;99.90
53045;DHT22;38930;52.766;6.884;2023-04-02T15:26:42;10.70;99.90
53045;DHT22;38930;52.766;6.884;2023-04-02T15:32:06;10.40;99.90
53045;DHT22;38930;52.766;6.884;2023-04-02T15:48:50;10.70;99.90
53045;DHT22;38930;52.766;6.884;2023-04-02T15:51:24;10.60;99.90
53045;DHT22;38930;52.766;6.884;2023-04-02T15:56:51;10.70;99.90
53045;DHT22;38930;52.766;6.884;2023-04-02T15:59:39;10.70;99.90
53045;DHT22;38930;52.766;6.884;2023-04-02T16:10:33;10.70;99.90
53045;DHT22;38930;52.766;6.884;2023-04-02T16:13:00;10.60;99.90
53045;DHT22;38930;52.766;6.884;2023-04-02T16:15:31;10.70;99.90
53045;DHT22;38930;52.766;6.884;2023-04-02T16:18:15;10.70;99.90
53045;DHT22;38930;52.766;6.884;2023-04-02T16:20:45;10.60;99.90
53045;DHT22;38930;52.766;6.884;2023-04-02T16:23:14;10.40;99.90
53045;DHT22;38930;52.766;6.884;2023-04-02T16:25:53;10.30;99.90
53045;DHT22;38930;52.766;6.884;2023-04-02T16:28:48;10.10;99.90
53045;DHT22;38930;52.766;6.884;2023-04-02T16:31:38;10.00;99.90
53045;DHT22;38930;52.766;6.884;2023-04-02T16:43:24;9.90;99.90
53045;DHT22;38930;52.766;6.884;2023-04-02T16:54:21;9.50;99.90
53045;DHT22;38930;52.766;6.884;2023-04-02T16:59:28;9.40;99.90
53045;DHT22;38930;52.766;6.884;2023-04-02T17:02:03;9.30;99.90
53045;DHT22;38930;52.766;6.884;2023-04-02T17:07:34;9.30;99.90
53045;DHT22;38930;52.766;6.884;2023-04-02T17:15:42;9.20;99.90
53045;DHT22;38930;52.766;6.884;2023-04-02T17:18:17;9.10;99.90
53045;DHT22;38930;52.766;6.884;2023-04-02T17:20:47;9.10;99.90
53045;DHT22;38930;52.766;6.884;2023-04-02T17:23:15;9.20;99.90
53045;DHT22;38930;52.766;6.884;2023-04-02T17:25:49;8.90;99.90
53045;DHT22;38930;52.766;6.884;2023-04-02T17:28:21;8.80;99.90
53045;DHT22;38930;52.766;6.884;2023-04-02T17:30:53;9.40;99.90
53045;DHT22;38930;52.766;6.884;2023-04-02T17:33:20;8.70;99.90
53045;DHT22;38930;52.766;6.884;2023-04-02T17:41:34;8.50;99.90
53045;DHT22;38930;52.766;6.884;2023-04-02T17:44:30;8.40;99.90
53045;DHT22;38930;52.766;6.884;2023-04-02T17:47:13;8.40;99.90
53045;DHT22;38930;52.766;6.884;2023-04-02T17:49:51;8.30;99.90
53045;DHT22;38930;52.766;6.884;2023-04-02T17:55:03;8.10;99.90
53045;DHT22;38930;52.766;6.884;2023-04-02T18:01:19;7.90;99.90
53045;DHT22;38930;52.766;6.884;2023-04-02T18:04:03;7.80;99.90
53045;DHT22;38930;52.766;6.884;2023-04-02T18:09:34;7.60;99.90
53045;DHT22;38930;52.766;6.884;2023-04-02T18:12:26;7.50;99.90
53045;DHT22;38930;52.766;6.884;2023-04-02T18:15:33;7.40;99.90
53045;DHT22;38930;52.766;6.884;2023-04-02T18:29:21;7.10;99.90
53045;DHT22;38930;52.766;6.884;2023-04-02T18:44:57;6.80;99.90
53045;DHT22;38930;52.766;6.884;2023-04-02T18:50:30;6.60;99.90
53045;DHT22;38930;52.766;6.884;2023-04-02T18:52:57;6.60;99.90
53045;DHT22;38930;52.766;6.884;2023-04-02T18:55:27;6.60;99.90
53045;DHT22;38930;52.766;6.884;2023-04-02T18:58:00;6.50;99.90
53045;DHT22;38930;52.766;6.884;2023-04-02T19:00:33;6.40;99.90
53045;DHT22;38930;52.766;6.884;2023-04-02T19:03:23;6.40;99.90
53045;DHT22;38930;52.766;6.884;2023-04-02T19:06:00;6.30;99.90
53045;DHT22;38930;52.766;6.884;2023-04-02T19:11:17;6.20;99.90
53045;DHT22;38930;52.766;6.884;2023-04-02T19:13:43;6.90;99.90
53045;DHT22;38930;52.766;6.884;2023-04-02T19:16:27;6.10;99.90
53045;DHT22;38930;52.766;6.884;2023-04-02T19:41:28;5.70;99.90
53045;DHT22;38930;52.766;6.884;2023-04-02T19:43:56;5.70;99.90
53045;DHT22;38930;52.766;6.884;2023-04-02T19:46:23;5.70;99.90
53045;DHT22;38930;52.766;6.884;2023-04-02T19:49:09;5.60;99.90
53045;DHT22;38930;52.766;6.884;2023-04-02T19:51:37;5.50;99.90
53045;DHT22;38930;52.766;6.884;2023-04-02T19:54:03;5.50;99.90
53045;DHT22;38930;52.766;6.884;2023-04-02T19:56:28;5.40;99.90
53045;DHT22;38930;52.766;6.884;2023-04-02T19:58:54;5.30;99.90
53045;DHT22;38930;52.766;6.884;2023-04-02T20:01:20;5.20;99.90
53045;DHT22;38930;52.766;6.884;2023-04-02T20:03:45;5.20;99.90
53045;DHT22;38930;52.766;6.884;2023-04-02T20:06:11;5.20;99.90
53045;DHT22;38930;52.766;6.884;2023-04-02T20:08:37;5.10;99.90
53045;DHT22;38930;52.766;6.884;2023-04-02T20:11:03;5.10;99.90
53045;DHT22;38930;52.766;6.884;2023-04-02T20:13:29;5.00;99.90
53045;DHT22;38930;52.766;6.884;2023-04-02T20:15:59;5.00;99.90
53045;DHT22;38930;52.766;6.884;2023-04-02T20:18:26;4.90;99.90
53045;DHT22;38930;52.766;6.884;2023-04-02T20:20:52;4.90;99.90
53045;DHT22;38930;52.766;6.884;2023-04-02T20:23:18;4.80;99.90
53045;DHT22;38930;52.766;6.884;2023-04-02T20:25:49;4.80;99.90
53045;DHT22;38930;52.766;6.884;2023-04-02T20:28:19;4.80;99.90
53045;DHT22;38930;52.766;6.884;2023-04-02T20:30:45;4.80;99.90
53045;DHT22;38930;52.766;6.884;2023-04-02T20:33:22;4.70;99.90
53045;DHT22;38930;52.766;6.884;2023-04-02T20:35:51;4.60;99.90
53045;DHT22;38930;52.766;6.884;2023-04-02T20:38:17;4.60;99.90
53045;DHT22;38930;52.766;6.884;2023-04-02T20:40:43;4.60;99.90
53045;DHT22;38930;52.766;6.884;2023-04-02T20:43:09;5.20;99.90
53045;DHT22;38930;52.766;6.884;2023-04-02T20:45:36;4.50;99.90
53045;DHT22;38930;52.766;6.884;2023-04-02T20:48:02;4.40;99.90
53045;DHT22;38930;52.766;6.884;2023-04-02T20:50:28;4.50;99.90
53045;DHT22;38930;52.766;6.884;2023-04-02T20:52:56;5.30;99.90
53045;DHT22;38930;52.766;6.884;2023-04-02T20:55:22;4.40;99.90
53045;DHT22;38930;52.766;6.884;2023-04-02T20:57:48;4.40;99.90
53045;DHT22;38930;52.766;6.884;2023-04-02T21:00:13;4.30;99.90
53045;DHT22;38930;52.766;6.884;2023-04-02T21:02:39;4.30;99.90
53045;DHT22;38930;52.766;6.884;2023-04-02T21:05:05;4.20;99.90
53045;DHT22;38930;52.766;6.884;2023-04-02T21:07:31;4.30;99.90
53045;DHT22;38930;52.766;6.884;2023-04-02T21:09:56;4.20;99.90
53045;DHT22;38930;52.766;6.884;2023-04-02T21:12:22;4.20;99.90
53045;DHT22;38930;52.766;6.884;2023-04-02T21:14:49;4.10;99.90
53045;DHT22;38930;52.766;6.884;2023-04-02T21:17:21;4.10;99.90
53045;DHT22;38930;52.766;6.884;2023-04-02T21:19:46;4.00;99.90
53045;DHT22;38930;52.766;6.884;2023-04-02T21:22:12;4.00;99.90
53045;DHT22;38930;52.766;6.884;2023-04-02T21:24:37;4.00;99.90
53045;DHT22;38930;52.766;6.884;2023-04-02T21:27:03;4.00;99.90
53045;DHT22;38930;52.766;6.884;2023-04-02T21:29:29;4.00;99.90
53045;DHT22;38930;52.766;6.884;2023-04-02T21:31:54;4.00;99.90